sensor_id;sensor_type;location;lat;lon;timestamp;temperature;humidity
26986;DHT22;14535;48.936;9.058;2022-07-22T00:00:47;18.10;99.90
26986;DHT22;14535;48.936;9.058;2022-07-22T00:02:47;18.00;99.90
26986;DHT22;14535;48.936;9.058;2022-07-22T00:04:48;18.00;99.90
26986;DHT22;14535;48.936;9.058;2022-07-22T00:06:49;18.00;99.90
26986;DHT22;14535;48.936;9.058;2022-07-22T00:08:49;18.00;99.90
26986;DHT22;14535;48.936;9.058;2022-07-22T00:10:50;17.90;99.90
26986;DHT22;14535;48.936;9.058;2022-07-22T00:12:51;17.90;99.90
26986;DHT22;14535;48.936;9.058;2022-07-22T00:14:51;17.90;99.90
26986;DHT22;14535;48.936;9.058;2022-07-22T00:16:53;17.80;99.90
26986;DHT22;14535;48.936;9.058;2022-07-22T00:18:54;17.80;99.90
26986;DHT22;14535;48.936;9.058;2022-07-22T00:20:55;17.70;99.90
26986;DHT22;14535;48.936;9.058;2022-07-22T00:22:56;17.70;99.90
26986;DHT22;14535;48.936;9.058;2022-07-22T00:24:56;17.60;99.90
26986;DHT22;14535;48.936;9.058;2022-07-22T00:26:58;17.60;99.90
26986;DHT22;14535;48.936;9.058;2022-07-22T00:28:59;17.60;99.90
26986;DHT22;14535;48.936;9.058;2022-07-22T00:30:59;17.60;99.90
26986;DHT22;14535;48.936;9.058;2022-07-22T00:33:00;17.60;99.90
26986;DHT22;14535;48.936;9.058;2022-07-22T00:35:00;17.50;99.90
26986;DHT22;14535;48.936;9.058;2022-07-22T00:37:01;17.50;99.90
26986;DHT22;14535;48.936;9.058;2022-07-22T00:39:02;17.50;99.90
26986;DHT22;14535;48.936;9.058;2022-07-22T00:41:03;17.40;99.90
26986;DHT22;14535;48.936;9.058;2022-07-22T00:43:04;17.40;99.90
26986;DHT22;14535;48.936;9.058;2022-07-22T00:45:05;17.40;99.90
26986;DHT22;14535;48.936;9.058;2022-07-22T00:47:07;17.40;99.90
26986;DHT22;14535;48.936;9.058;2022-07-22T00:49:08;17.40;99.90
26986;DHT22;14535;48.936;9.058;2022-07-22T00:51:09;17.30;99.90
26986;DHT22;14535;48.936;9.058;2022-07-22T00:53:09;17.30;99.90
26986;DHT22;14535;48.936;9.058;2022-07-22T00:55:10;17.30;99.90
26986;DHT22;14535;48.936;9.058;2022-07-22T00:57:11;17.30;99.90
26986;DHT22;14535;48.936;9.058;2022-07-22T00:59:12;17.20;99.90
26986;DHT22;14535;48.936;9.058;2022-07-22T01:01:13;17.20;99.90
26986;DHT22;14535;48.936;9.058;2022-07-22T01:03:13;17.20;99.90
26986;DHT22;14535;48.936;9.058;2022-07-22T01:05:16;17.10;99.90
26986;DHT22;14535;48.936;9.058;2022-07-22T01:07:18;17.10;99.90
26986;DHT22;14535;48.936;9.058;2022-07-22T01:09:18;17.00;99.90
26986;DHT22;14535;48.936;9.058;2022-07-22T01:11:19;17.00;99.90
26986;DHT22;14535;48.936;9.058;2022-07-22T01:13:20;16.90;99.90
26986;DHT22;14535;48.936;9.058;2022-07-22T01:15:22;16.90;99.90
26986;DHT22;14535;48.936;9.058;2022-07-22T01:17:23;16.90;99.90
26986;DHT22;14535;48.936;9.058;2022-07-22T01:19:23;16.90;99.90
26986;DHT22;14535;48.936;9.058;2022-07-22T01:21:24;16.90;99.90
26986;DHT22;14535;48.936;9.058;2022-07-22T01:23:25;16.80;99.90
26986;DHT22;14535;48.936;9.058;2022-07-22T01:25:27;16.90;99.90
26986;DHT22;14535;48.936;9.058;2022-07-22T01:27:27;16.90;99.90
26986;DHT22;14535;48.936;9.058;2022-07-22T01:29:29;16.90;99.90
26986;DHT22;14535;48.936;9.058;2022-07-22T01:31:32;16.90;99.90
26986;DHT22;14535;48.936;9.058;2022-07-22T01:33:33;16.90;99.90
26986;DHT22;14535;48.936;9.058;2022-07-22T01:35:34;16.90;99.90
26986;DHT22;14535;48.936;9.058;2022-07-22T01:37:35;16.90;99.90
26986;DHT22;14535;48.936;9.058;2022-07-22T01:39:36;16.80;99.90
26986;DHT22;14535;48.936;9.058;2022-07-22T01:41:37;16.80;99.90
26986;DHT22;14535;48.936;9.058;2022-07-22T01:43:38;16.80;99.90
26986;DHT22;14535;48.936;9.058;2022-07-22T01:45:39;16.80;99.90
26986;DHT22;14535;48.936;9.058;2022-07-22T01:47:39;16.80;99.90
26986;DHT22;14535;48.936;9.058;2022-07-22T01:49:40;16.80;99.90
26986;DHT22;14535;48.936;9.058;2022-07-22T01:51:40;16.70;99.90
26986;DHT22;14535;48.936;9.058;2022-07-22T01:53:41;16.70;99.90
26986;DHT22;14535;48.936;9.058;2022-07-22T01:55:41;16.70;99.90
26986;DHT22;14535;48.936;9.058;2022-07-22T01:57:42;16.70;99.90
26986;DHT22;14535;48.936;9.058;2022-07-22T01:59:43;16.70;99.90
26986;DHT22;14535;48.936;9.058;2022-07-22T02:01:43;16.70;99.90
26986;DHT22;14535;48.936;9.058;2022-07-22T02:03:48;16.70;99.90
26986;DHT22;14535;48.936;9.058;2022-07-22T02:05:49;16.70;99.90
26986;DHT22;14535;48.936;9.058;2022-07-22T02:07:51;16.70;99.90
26986;DHT22;14535;48.936;9.058;2022-07-22T02:09:52;16.80;99.90
26986;DHT22;14535;48.936;9.058;2022-07-22T02:11:53;16.80;99.90
26986;DHT22;14535;48.936;9.058;2022-07-22T02:13:53;16.70;99.90
26986;DHT22;14535;48.936;9.058;2022-07-22T02:15:56;16.70;99.90
26986;DHT22;14535;48.936;9.058;2022-07-22T02:17:56;16.70;99.90
26986;DHT22;14535;48.936;9.058;2022-07-22T02:19:58;16.60;99.90
26986;DHT22;14535;48.936;9.058;2022-07-22T02:21:59;16.60;99.90
26986;DHT22;14535;48.936;9.058;2022-07-22T02:24:00;16.50;99.90
26986;DHT22;14535;48.936;9.058;2022-07-22T02:26:00;16.50;99.90
26986;DHT22;14535;48.936;9.058;2022-07-22T02:28:03;16.50;99.90
26986;DHT22;14535;48.936;9.058;2022-07-22T02:30:04;16.50;99.90
26986;DHT22;14535;48.936;9.058;2022-07-22T02:32:05;16.40;99.90
26986;DHT22;14535;48.936;9.058;2022-07-22T02:34:06;16.40;99.90
26986;DHT22;14535;48.936;9.058;2022-07-22T02:36:07;16.40;99.90
26986;DHT22;14535;48.936;9.058;2022-07-22T02:38:08;16.30;99.90
26986;DHT22;14535;48.936;9.058;2022-07-22T02:40:09;16.40;99.90
26986;DHT22;14535;48.936;9.058;2022-07-22T02:42:10;16.30;99.90
26986;DHT22;14535;48.936;9.058;2022-07-22T02:44:11;16.30;99.90
26986;DHT22;14535;48.936;9.058;2022-07-22T02:46:11;16.30;99.90
26986;DHT22;14535;48.936;9.058;2022-07-22T02:48:12;16.20;99.90
26986;DHT22;14535;48.936;9.058;2022-07-22T02:50:12;16.30;99.90
26986;DHT22;14535;48.936;9.058;2022-07-22T02:52:14;16.30;99.90
26986;DHT22;14535;48.936;9.058;2022-07-22T02:54:15;16.30;99.90
26986;DHT22;14535;48.936;9.058;2022-07-22T02:56:16;16.30;99.90
26986;DHT22;14535;48.936;9.058;2022-07-22T02:58:16;16.30;99.90
26986;DHT22;14535;48.936;9.058;2022-07-22T03:00:17;16.20;99.90
26986;DHT22;14535;48.936;9.058;2022-07-22T03:02:19;16.10;99.90
26986;DHT22;14535;48.936;9.058;2022-07-22T03:04:19;16.10;99.90
26986;DHT22;14535;48.936;9.058;2022-07-22T03:06:20;16.00;99.90
26986;DHT22;14535;48.936;9.058;2022-07-22T03:08:21;16.00;99.90
26986;DHT22;14535;48.936;9.058;2022-07-22T03:10:22;16.00;99.90
26986;DHT22;14535;48.936;9.058;2022-07-22T03:12:22;16.00;99.90
26986;DHT22;14535;48.936;9.058;2022-07-22T03:14:23;15.90;99.90
26986;DHT22;14535;48.936;9.058;2022-07-22T03:16:25;15.90;99.90
26986;DHT22;14535;48.936;9.058;2022-07-22T03:18:25;15.90;99.90
26986;DHT22;14535;48.936;9.058;2022-07-22T03:20:26;15.80;99.90
26986;DHT22;14535;48.936;9.058;2022-07-22T03:22:26;15.80;99.90
26986;DHT22;14535;48.936;9.058;2022-07-22T03:24:27;15.80;99.90
26986;DHT22;14535;48.936;9.058;2022-07-22T03:26:28;15.80;99.90
26986;DHT22;14535;48.936;9.058;2022-07-22T03:28:28;15.70;99.90
26986;DHT22;14535;48.936;9.058;2022-07-22T03:30:29;15.70;99.90
26986;DHT22;14535;48.936;9.058;2022-07-22T03:32:30;15.70;99.90
26986;DHT22;14535;48.936;9.058;2022-07-22T03:34:30;15.70;99.90
26986;DHT22;14535;48.936;9.058;2022-07-22T03:36:32;15.70;99.90
26986;DHT22;14535;48.936;9.058;2022-07-22T03:38:33;15.70;99.90
26986;DHT22;14535;48.936;9.058;2022-07-22T03:40:34;15.70;99.90
26986;DHT22;14535;48.936;9.058;2022-07-22T03:42:35;15.70;99.90
26986;DHT22;14535;48.936;9.058;2022-07-22T03:44:35;15.70;99.90
26986;DHT22;14535;48.936;9.058;2022-07-22T03:46:36;15.70;99.90
26986;DHT22;14535;48.936;9.058;2022-07-22T03:48:38;15.60;99.90
26986;DHT22;14535;48.936;9.058;2022-07-22T03:50:38;15.60;99.90
26986;DHT22;14535;48.936;9.058;2022-07-22T03:52:39;15.60;99.90
26986;DHT22;14535;48.936;9.058;2022-07-22T03:54:40;15.60;99.90
26986;DHT22;14535;48.936;9.058;2022-07-22T03:56:41;15.60;99.90
26986;DHT22;14535;48.936;9.058;2022-07-22T03:58:42;15.60;99.90
26986;DHT22;14535;48.936;9.058;2022-07-22T04:00:43;15.60;99.90
26986;DHT22;14535;48.936;9.058;2022-07-22T04:02:43;15.60;99.90
26986;DHT22;14535;48.936;9.058;2022-07-22T04:04:45;15.70;99.90
26986;DHT22;14535;48.936;9.058;2022-07-22T04:06:46;15.70;99.90
26986;DHT22;14535;48.936;9.058;2022-07-22T04:08:46;15.70;99.90
26986;DHT22;14535;48.936;9.058;2022-07-22T04:10:47;15.70;99.90
26986;DHT22;14535;48.936;9.058;2022-07-22T04:12:47;15.80;99.90
26986;DHT22;14535;48.936;9.058;2022-07-22T04:14:48;15.80;99.90
26986;DHT22;14535;48.936;9.058;2022-07-22T04:16:48;15.80;99.90
26986;DHT22;14535;48.936;9.058;2022-07-22T04:18:49;15.80;99.90
26986;DHT22;14535;48.936;9.058;2022-07-22T04:20:50;15.80;99.90
26986;DHT22;14535;48.936;9.058;2022-07-22T04:22:50;15.90;99.90
26986;DHT22;14535;48.936;9.058;2022-07-22T04:24:51;15.90;99.90
26986;DHT22;14535;48.936;9.058;2022-07-22T04:26:51;15.90;99.90
26986;DHT22;14535;48.936;9.058;2022-07-22T04:28:52;15.90;99.90
26986;DHT22;14535;48.936;9.058;2022-07-22T04:30:52;15.90;99.90
26986;DHT22;14535;48.936;9.058;2022-07-22T04:32:54;15.90;99.90
26986;DHT22;14535;48.936;9.058;2022-07-22T04:34:55;15.90;99.90
26986;DHT22;14535;48.936;9.058;2022-07-22T04:36:56;15.90;99.90
26986;DHT22;14535;48.936;9.058;2022-07-22T04:38:57;15.90;99.90
26986;DHT22;14535;48.936;9.058;2022-07-22T04:40:57;16.00;99.90
26986;DHT22;14535;48.936;9.058;2022-07-22T04:42:58;16.00;99.90
26986;DHT22;14535;48.936;9.058;2022-07-22T04:44:58;16.00;99.90
26986;DHT22;14535;48.936;9.058;2022-07-22T04:46:59;16.10;99.90
26986;DHT22;14535;48.936;9.058;2022-07-22T04:48:59;16.10;99.90
26986;DHT22;14535;48.936;9.058;2022-07-22T04:51:01;16.20;99.90
26986;DHT22;14535;48.936;9.058;2022-07-22T04:53:03;16.30;99.90
26986;DHT22;14535;48.936;9.058;2022-07-22T04:55:04;16.30;99.90
26986;DHT22;14535;48.936;9.058;2022-07-22T04:57:06;16.30;99.90
